METAR Data
IDs: Format: Raw Decoded Include TAF

Data at: 0144 UTC 25 Feb 2021

KONT 250053Z 24012KT 10SM CLR 22/01 A2996 RMK AO2 SLP140 T02170011